METAR Data
IDs: Format: Raw Decoded Include TAF

Data at: 0825 UTC 20 Sep 2018

PAJN 200753Z 00000KT 10SM FEW001 02/01 A3006 RMK AO2 SLP179 T00220011
PAJN 200708Z 00000KT 10SM FEW001 03/02 A3006 RMK AO2 T00330022
PAJN 200653Z 00000KT 10SM CLR 04/02 A3006 RMK AO2 SLP178 T00390017
PAJN 200553Z 00000KT 10SM CLR 03/02 A3005 RMK AO2 SLP175 T00330017 10144 20033 51005
PAJN 200453Z 00000KT 10SM CLR 05/02 A3004 RMK AO2 SLP174 T00500022
PAJN 200353Z 00000KT 10SM FEW200 07/03 A3004 RMK AO2 SLP172 T00720033
PAJN 200253Z 00000KT 10SM FEW090 FEW200 12/06 A3003 RMK AO2 SLP170 T01170056 55005
PAJN 200153Z 24004KT 10SM FEW090 FEW160 14/03 A3003 RMK AO2 SLP170 T01390028
PAJN 200053Z 25006KT 10SM FEW055 FEW090 14/02 A3004 RMK AO2 SLP172 T01440022
PAJN 192353Z 25007KT 10SM FEW055 FEW090 14/02 A3005 RMK AO2 SLP175 T01440022 10150 20083 56017
PAJN 192253Z 23006KT 10SM FEW090 14/02 A3006 RMK AO2 SLP180 T01390022
PAJN 192153Z 23007KT 10SM FEW075 13/03 A3008 RMK AO2 SLP184 T01330028
PAJN 192053Z 24007KT 10SM FEW060 12/03 A3010 RMK AO2 SLP191 T01220033 56011
PAJN 191953Z 24006KT 10SM FEW060 11/04 A3011 RMK AO2 SLP195 T01110039
PAJN 191853Z 23007KT 10SM CLR 10/04 A3012 RMK AO2 SLP199 T01000044
PAJN 191753Z 22003KT 10SM CLR 09/04 A3013 RMK AO2 SLP202 T00890039 10089 21011 58004
PAJN 191653Z 00000KT 10SM FEW200 05/02 A3013 RMK AO2 SLP204 T00500022
PAJN 191553Z 00000KT 10SM CLR 02/00 A3014 RMK AO2 SLP206 T00170000
PAJN 191453Z COR 00000KT 10SM BCFG FEW000 FEW230 M01/M01 A3014 RMK AO2 SLP207 BCFG FEW000 BCFG E T10061011 53003
PAJN 191445Z 00000KT 10SM BCFG FEW000 00/M01 A3014 RMK AO2 BCFG FEW000 T00001011
PAJN 191353Z 00000KT 10SM CLR M01/M02 A3014 RMK AO2 SLP204 T10111017
PAJN 191253Z 00000KT 10SM CLR 01/M01 A3014 RMK AO2 SLP205 T00061006
PAJN 191153Z 00000KT 10SM CLR 01/M01 A3013 RMK AO2 SLP203 T00061006 10050 20000 50000
PAJN 191053Z 00000KT 10SM CLR 02/M01 A3013 RMK AO2 SLP203 T00171006
PAJN 190953Z 00000KT 10SM CLR 02/00 A3014 RMK AO2 SLP205 T00170000
PAJN 190853Z 00000KT 10SM CLR 03/01 A3013 RMK AO2 SLP203 T00280006 401501011 51003
PAJN 190753Z 00000KT 10SM CLR 03/01 A3013 RMK AO2 SLP203 T00280006
PAJN 190653Z 00000KT 10SM CLR 04/01 A3013 RMK AO2 SLP202 T00440011
PAJN 190553Z 00000KT 10SM CLR 04/02 A3012 RMK AO2 SLP200 T00440017 10150 20039 51006
PAJN 190453Z 00000KT 10SM CLR 06/02 A3012 RMK AO2 SLP199 T00560017
PAJN 190353Z 00000KT 10SM FEW200 07/03 A3011 RMK AO2 SLP197 T00720028
PAJN 190253Z 27003KT 10SM FEW200 12/03 A3011 RMK AO2 SLP195 T01170028 55004
PAJN 190153Z 25007KT 10SM FEW200 13/03 A3010 RMK AO2 SLP193 T01330028
PAJN 190053Z 25009KT 10SM CLR 14/01 A3011 RMK AO2 SLP195 T01440011
PAJN 182353Z 25009KT 10SM CLR 15/02 A3012 RMK AO2 SLP198 T01500017 10150 20089 56014
PAJN 182253Z 24009KT 10SM CLR 14/03 A3013 RMK AO2 SLP203 T01390028
PAJN 182153Z 23007KT 10SM CLR 13/03 A3014 RMK AO2 SLP207 T01330028
PAJN 182053Z 24008KT 10SM CLR 12/03 A3016 RMK AO2 SLP212 T01170028 58008